Time;durP1;ratioP1;P1;durP2;ratioP2;P2;SDS_P1;SDS_P2;PMS_P1;PMS_P2;Temp;Humidity;BMP_temperature;BMP_pressure;BME280_temperature;BME280_humidity;BME280_pressure;Samples;Min_cycle;Max_cycle;Signal;HPM_P1;HPM_P2
2023/05/27 00:01:14;;;;;;;1999.90;999.90;;;;;;;21.91;79.02;100311.88;108440;1275;22037;-58
2023/05/27 00:03:40;;;;;;;1999.90;999.90;;;;;;;21.88;79.10;100311.28;108543;1277;22016;-57
2023/05/27 00:06:06;;;;;;;1999.90;999.90;;;;;;;21.87;78.82;100309.36;108503;1274;24393;-58
2023/05/27 00:08:31;;;;;;;1999.90;999.90;;;;;;;21.87;78.74;100312.98;108496;1275;21984;-57
2023/05/27 00:10:57;;;;;;;1999.90;999.90;;;;;;;21.86;78.78;100313.41;108544;1274;21974;-59
2023/05/27 00:13:23;;;;;;;1999.90;999.90;;;;;;;21.81;79.08;100314.91;108437;1278;21988;-58
2023/05/27 00:15:48;;;;;;;1999.90;999.90;;;;;;;21.78;79.32;100313.71;108454;1273;22232;-58
2023/05/27 00:18:14;;;;;;;1999.90;999.90;;;;;;;21.77;79.25;100316.80;108499;1279;21984;-57
2023/05/27 00:20:39;;;;;;;1999.90;999.90;;;;;;;21.74;79.35;100306.81;108519;1274;21995;-58
2023/05/27 00:23:05;;;;;;;1999.90;999.90;;;;;;;21.71;79.31;100310.15;108518;1279;22297;-58
2023/05/27 00:25:31;;;;;;;1999.90;999.90;;;;;;;21.72;79.16;100305.44;108563;1279;21980;-57
2023/05/27 00:27:57;;;;;;;1999.90;999.90;;;;;;;21.76;79.00;100304.34;108480;1274;22077;-57
2023/05/27 00:30:22;;;;;;;1999.90;999.90;;;;;;;21.79;78.63;100295.76;108591;1278;21990;-59
2023/05/27 00:32:48;;;;;;;1999.90;999.90;;;;;;;21.78;78.48;100294.74;108446;1274;21988;-58
2023/05/27 00:35:13;;;;;;;1999.90;999.90;;;;;;;21.76;78.37;100293.24;108470;1277;23722;-57
2023/05/27 00:37:40;;;;;;;1999.90;999.90;;;;;;;21.68;78.90;100297.31;108485;1279;22166;-59
2023/05/27 00:40:13;;;;;;;1999.90;999.90;;;;;;;21.62;79.19;100296.60;108416;1277;21985;-58
2023/05/27 00:42:38;;;;;;;1999.90;999.90;;;;;;;21.60;79.65;100294.91;108383;1279;21977;-58
2023/05/27 00:45:05;;;;;;;1999.90;999.90;;;;;;;21.60;79.71;100296.68;108452;1274;21987;-57
2023/05/27 00:47:31;;;;;;;1999.90;999.90;;;;;;;21.61;79.89;100293.08;108492;1279;21977;-57
2023/05/27 00:49:57;;;;;;;1999.90;999.90;;;;;;;21.60;79.97;100291.83;108450;1278;21985;-58
2023/05/27 00:52:23;;;;;;;1999.90;999.90;;;;;;;21.59;80.10;100288.54;108456;1279;21984;-57
2023/05/27 00:54:49;;;;;;;1999.90;999.90;;;;;;;21.57;80.10;100290.27;108562;1279;22047;-59
2023/05/27 00:57:15;;;;;;;1999.90;999.90;;;;;;;21.56;80.43;100290.14;108501;1274;22007;-58
2023/05/27 00:59:41;;;;;;;1999.90;999.90;;;;;;;21.60;80.22;100287.40;108525;1279;21985;-57
2023/05/27 01:02:06;;;;;;;1999.90;999.90;;;;;;;21.62;80.29;100283.91;108424;1279;21982;-58
2023/05/27 01:04:32;;;;;;;1999.90;999.90;;;;;;;21.64;80.56;100282.02;108578;1271;22002;-58
2023/05/27 01:07:07;;;;;;;1999.90;999.90;;;;;;;21.67;80.58;100285.59;108598;1274;22041;-57
2023/05/27 01:09:45;;;;;;;1999.90;999.90;;;;;;;21.68;80.47;100282.99;108615;1279;21982;-57
2023/05/27 01:12:18;;;;;;;1999.90;999.90;;;;;;;21.69;80.44;100280.43;108470;1279;21981;-57
2023/05/27 01:14:44;;;;;;;1999.90;999.90;;;;;;;21.70;80.38;100283.80;108545;1279;21990;-57
2023/05/27 01:17:11;;;;;;;1999.90;999.90;;;;;;;21.70;80.36;100280.04;108382;1279;21984;-57
2023/05/27 01:19:42;;;;;;;1999.90;999.90;;;;;;;21.69;80.24;100280.30;108591;1277;22034;-57
2023/05/27 01:22:08;;;;;;;1999.90;999.90;;;;;;;21.68;80.53;100278.17;108673;1278;22168;-57
2023/05/27 01:24:33;;;;;;;1999.90;999.90;;;;;;;21.68;80.44;100276.60;108508;1274;21975;-58
2023/05/27 01:27:01;;;;;;;1999.90;999.90;;;;;;;21.64;80.51;100277.90;108502;1274;21983;-59
2023/05/27 01:29:28;;;;;;;1999.90;999.90;;;;;;;21.63;80.55;100274.40;108576;1274;21984;-58
2023/05/27 01:32:02;;;;;;;1999.90;999.90;;;;;;;21.63;80.74;100269.24;108496;1279;21983;-57
2023/05/27 01:34:41;;;;;;;1999.90;999.90;;;;;;;21.63;80.63;100263.69;108558;1278;21986;-57
2023/05/27 01:37:08;;;;;;;1999.90;999.90;;;;;;;21.63;80.72;100258.19;108501;1271;22449;-58
2023/05/27 01:39:34;;;;;;;1999.90;999.90;;;;;;;21.63;80.89;100255.13;108493;1279;22037;-57
2023/05/27 01:42:01;;;;;;;1999.90;999.90;;;;;;;21.62;80.95;100254.09;108509;1279;22023;-59
2023/05/27 01:44:28;;;;;;;1999.90;999.90;;;;;;;21.60;80.85;100255.44;108490;1277;22448;-58
2023/05/27 01:46:58;;;;;;;1999.90;999.90;;;;;;;21.59;80.98;100256.95;108454;1279;21988;-58
2023/05/27 01:49:24;;;;;;;1999.90;999.90;;;;;;;21.60;81.15;100257.80;108556;1275;21987;-58
2023/05/27 01:51:49;;;;;;;1999.90;999.90;;;;;;;21.62;81.21;100260.37;108445;1278;21982;-58
2023/05/27 01:54:15;;;;;;;1999.90;999.90;;;;;;;21.62;81.39;100255.89;108419;1274;21984;-57
2023/05/27 01:56:41;;;;;;;1999.90;999.90;;;;;;;21.62;81.35;100256.61;108441;1278;21984;-58
2023/05/27 01:59:06;;;;;;;1999.90;999.90;;;;;;;21.63;81.35;100259.26;108411;1271;21991;-58
2023/05/27 02:01:33;;;;;;;1999.90;999.90;;;;;;;21.61;81.26;100260.91;108485;1279;22002;-58
2023/05/27 02:03:59;;;;;;;1999.90;999.90;;;;;;;21.60;81.38;100257.96;108579;1279;22033;-57
2023/05/27 02:06:26;;;;;;;1999.90;999.90;;;;;;;21.59;81.45;100263.21;108481;1277;21988;-57
2023/05/27 02:08:51;;;;;;;1999.90;999.90;;;;;;;21.58;81.64;100262.52;108509;1279;22021;-58
2023/05/27 02:11:17;;;;;;;1999.90;999.90;;;;;;;21.59;81.59;100262.14;108489;1277;21974;-57
2023/05/27 02:13:42;;;;;;;1999.90;999.90;;;;;;;21.59;81.66;100260.67;108443;1271;22286;-58
2023/05/27 02:16:08;;;;;;;1999.90;999.90;;;;;;;21.61;81.67;100261.32;108492;1277;22005;-58
2023/05/27 02:18:35;;;;;;;1999.90;999.90;;;;;;;21.62;81.64;100259.46;108437;1278;21983;-58
2023/05/27 02:21:05;;;;;;;1999.90;999.90;;;;;;;21.63;81.59;100258.52;108445;1274;21988;-59
2023/05/27 02:23:34;;;;;;;1999.90;999.90;;;;;;;21.64;81.59;100259.87;108439;1279;23709;-58
2023/05/27 02:26:00;;;;;;;1999.90;999.90;;;;;;;21.64;81.56;100262.70;108552;1271;22016;-59
2023/05/27 02:28:26;;;;;;;1999.90;999.90;;;;;;;21.64;81.58;100268.42;108641;1273;21984;-58
2023/05/27 02:30:52;;;;;;;1999.90;999.90;;;;;;;21.65;81.79;100266.26;108478;1278;21982;-58
2023/05/27 02:33:17;;;;;;;1999.90;999.90;;;;;;;21.66;81.81;100264.77;108459;1271;21984;-58
2023/05/27 02:35:43;;;;;;;1999.90;999.90;;;;;;;21.66;81.88;100267.05;108519;1274;22022;-58
2023/05/27 02:38:08;;;;;;;1999.90;999.90;;;;;;;21.67;81.96;100268.10;108404;1279;21981;-58
2023/05/27 02:40:34;;;;;;;1999.90;999.90;;;;;;;21.68;82.06;100275.00;108486;1278;22149;-58
2023/05/27 02:43:00;;;;;;;1999.90;999.90;;;;;;;21.67;82.29;100279.13;108507;1279;21986;-59
2023/05/27 02:45:26;;;;;;;1999.90;999.90;;;;;;;21.69;82.72;100283.52;108647;1274;21982;-58
2023/05/27 02:47:51;;;;;;;1999.90;999.90;;;;;;;21.71;82.67;100281.45;108568;1277;21982;-59
2023/05/27 02:50:17;;;;;;;1999.90;999.90;;;;;;;21.72;82.74;100281.91;108486;1279;21988;-58
2023/05/27 02:52:43;;;;;;;1999.90;999.90;;;;;;;21.74;82.45;100284.48;108423;1279;22238;-58
2023/05/27 02:55:08;;;;;;;1999.90;999.90;;;;;;;21.75;82.48;100284.21;108434;1278;22071;-58
2023/05/27 02:57:36;;;;;;;1999.90;999.90;;;;;;;21.77;82.36;100286.27;108429;1279;21985;-58
2023/05/27 03:00:03;;;;;;;1999.90;999.90;;;;;;;21.79;82.32;100288.65;108482;1279;21986;-58
2023/05/27 03:02:29;;;;;;;1999.90;999.90;;;;;;;21.80;82.32;100292.28;108468;1279;21986;-58
2023/05/27 03:04:55;;;;;;;1999.90;999.90;;;;;;;21.83;82.56;100300.14;108466;1279;21986;-58
2023/05/27 03:07:21;;;;;;;1999.90;999.90;;;;;;;21.89;82.51;100301.93;108417;1279;21986;-58
2023/05/27 03:09:46;;;;;;;1999.90;999.90;;;;;;;21.96;82.29;100304.39;108416;1275;22021;-58
2023/05/27 03:12:12;;;;;;;1999.90;999.90;;;;;;;22.00;82.16;100300.91;108410;1277;23042;-57
2023/05/27 03:14:37;;;;;;;1999.90;999.90;;;;;;;22.03;82.29;100301.64;108427;1279;21980;-57
2023/05/27 03:17:03;;;;;;;1999.90;999.90;;;;;;;22.03;82.29;100304.50;108392;1278;21973;-58
2023/05/27 03:19:29;;;;;;;1999.90;999.90;;;;;;;22.05;82.29;100309.40;108410;1279;22035;-57
2023/05/27 03:21:55;;;;;;;1999.90;999.90;;;;;;;22.07;82.35;100308.02;108411;1279;21975;-58
2023/05/27 03:24:21;;;;;;;1999.90;999.90;;;;;;;22.10;82.36;100307.08;108387;1278;22457;-58
2023/05/27 03:26:47;;;;;;;1999.90;999.90;;;;;;;22.14;82.31;100307.20;108394;1272;21996;-58
2023/05/27 03:29:12;;;;;;;1999.90;999.90;;;;;;;22.19;82.47;100309.77;108461;1279;21994;-58
2023/05/27 03:31:38;;;;;;;1999.90;999.90;;;;;;;22.23;82.51;100314.01;108437;1274;21995;-58
2023/05/27 03:34:03;;;;;;;1999.90;999.90;;;;;;;22.25;82.27;100315.99;108528;1277;21983;-57
2023/05/27 03:36:29;;;;;;;1999.90;999.90;;;;;;;22.25;82.20;100319.60;108500;1278;21988;-58
2023/05/27 03:38:56;;;;;;;1999.90;999.90;;;;;;;22.24;82.14;100320.87;108464;1278;21990;-58
2023/05/27 03:41:21;;;;;;;1999.90;999.90;;;;;;;22.25;82.25;100320.11;108497;1279;21990;-59
2023/05/27 03:43:47;;;;;;;1999.90;999.90;;;;;;;22.25;82.30;100321.88;108442;1275;21971;-58
2023/05/27 03:46:12;;;;;;;1999.90;999.90;;;;;;;22.27;82.50;100321.98;108429;1278;21997;-59
2023/05/27 03:48:38;;;;;;;1999.90;999.90;;;;;;;22.28;82.45;100325.98;108496;1278;21982;-58
2023/05/27 03:51:04;;;;;;;1999.90;999.90;;;;;;;22.26;82.32;100328.66;108641;1279;21981;-59
2023/05/27 03:53:29;;;;;;;1999.90;999.90;;;;;;;22.22;82.52;100330.83;108463;1274;22037;-58
2023/05/27 03:55:55;;;;;;;1999.90;999.90;;;;;;;22.18;82.55;100334.14;108453;1278;22028;-58
2023/05/27 03:58:21;;;;;;;1999.90;999.90;;;;;;;22.16;82.35;100332.98;108555;1279;21989;-59
2023/05/27 04:00:47;;;;;;;1999.90;999.90;;;;;;;22.16;82.59;100334.63;108456;1279;22042;-58
2023/05/27 04:03:13;;;;;;;1999.90;999.90;;;;;;;22.13;82.43;100332.11;108464;1279;21990;-58
2023/05/27 04:05:39;;;;;;;1999.90;999.90;;;;;;;22.11;82.41;100332.19;108514;1279;21985;-58
2023/05/27 04:08:05;;;;;;;1999.90;999.90;;;;;;;22.13;82.72;100336.92;108530;1277;21982;-58
2023/05/27 04:10:30;;;;;;;1999.90;999.90;;;;;;;22.14;82.80;100338.63;108534;1271;21983;-58
2023/05/27 04:12:56;;;;;;;1999.90;999.90;;;;;;;22.14;82.69;100338.09;108510;1279;21993;-59
2023/05/27 04:15:21;;;;;;;1999.90;999.90;;;;;;;22.15;82.70;100337.52;108510;1271;22011;-59
2023/05/27 04:17:47;;;;;;;1999.90;999.90;;;;;;;22.20;83.05;100339.39;108605;1275;22023;-58
2023/05/27 04:20:13;;;;;;;1999.90;999.90;;;;;;;22.25;83.25;100337.63;108508;1277;21984;-58
2023/05/27 04:22:45;;;;;;;1999.90;999.90;;;;;;;22.30;83.41;100335.51;108539;1279;21983;-58
2023/05/27 04:25:10;;;;;;;1999.90;999.90;;;;;;;22.38;83.30;100338.61;108480;1274;22023;-58
2023/05/27 04:27:39;;;;;;;1999.90;999.90;;;;;;;22.44;83.41;100335.40;108426;1279;21989;-58
2023/05/27 04:30:05;;;;;;;1999.90;999.90;;;;;;;22.51;83.20;100336.80;108440;1278;21995;-58
2023/05/27 04:32:37;;;;;;;1999.90;999.90;;;;;;;22.55;83.16;100338.61;108493;1279;24416;-58
2023/05/27 04:35:07;;;;;;;1999.90;999.90;;;;;;;22.59;82.87;100340.21;108620;1278;21986;-59
2023/05/27 04:37:33;;;;;;;1999.90;999.90;;;;;;;22.60;82.56;100343.89;108555;1271;23604;-58
2023/05/27 04:39:58;;;;;;;1999.90;999.90;;;;;;;22.62;82.78;100344.48;108602;1271;21984;-58
2023/05/27 04:42:24;;;;;;;1999.90;999.90;;;;;;;22.66;82.96;100344.23;108553;1279;22000;-59
2023/05/27 04:44:50;;;;;;;1999.90;999.90;;;;;;;22.70;83.08;100345.92;108525;1279;21973;-59
2023/05/27 04:47:16;;;;;;;1999.90;999.90;;;;;;;22.73;82.93;100347.56;108510;1278;21982;-58
2023/05/27 04:49:43;;;;;;;1999.90;999.90;;;;;;;22.76;82.82;100350.39;108552;1279;21988;-58
2023/05/27 04:52:09;;;;;;;1999.90;999.90;;;;;;;22.76;82.73;100354.66;108535;1279;21985;-59
2023/05/27 04:54:37;;;;;;;1999.90;999.90;;;;;;;22.75;82.68;100354.42;108617;1273;21978;-57
2023/05/27 04:57:03;;;;;;;1999.90;999.90;;;;;;;22.76;82.52;100354.88;108530;1279;21993;-59
2023/05/27 04:59:59;;;;;;;1999.90;999.90;;;;;;;22.77;82.54;100354.46;108451;1270;21995;-58
2023/05/27 05:02:34;;;;;;;1999.90;999.90;;;;;;;22.77;82.29;100353.58;108552;1272;21983;-59
2023/05/27 05:05:07;;;;;;;1999.90;999.90;;;;;;;22.76;82.64;100352.55;108459;1279;21991;-59
2023/05/27 05:07:33;;;;;;;1999.90;999.90;;;;;;;22.76;82.78;100353.59;108474;1279;22449;-58
2023/05/27 05:09:59;;;;;;;1999.90;999.90;;;;;;;22.78;82.99;100352.92;108520;1279;21994;-58
2023/05/27 05:12:25;;;;;;;1999.90;999.90;;;;;;;22.80;83.25;100352.45;108483;1277;21995;-59
2023/05/27 05:14:51;;;;;;;1999.90;999.90;;;;;;;22.83;83.04;100354.96;108472;1279;21988;-58
2023/05/27 05:17:17;;;;;;;1999.90;999.90;;;;;;;22.87;83.12;100352.39;108571;1278;21982;-59
2023/05/27 05:19:44;;;;;;;1999.90;999.90;;;;;;;22.90;83.62;100352.19;108502;1274;22000;-60
2023/05/27 05:22:12;;;;;;;1999.90;999.90;;;;;;;22.96;83.52;100355.37;108526;1272;21982;-59
2023/05/27 05:24:38;;;;;;;1999.90;999.90;;;;;;;23.02;83.07;100360.73;108478;1272;21981;-58
2023/05/27 05:27:06;;;;;;;1999.90;999.90;;;;;;;23.05;83.17;100361.23;108599;1277;21985;-58
2023/05/27 05:29:32;;;;;;;1999.90;999.90;;;;;;;23.09;83.46;100359.92;108582;1277;21979;-58
2023/05/27 05:31:58;;;;;;;1999.90;999.90;;;;;;;23.13;83.73;100360.92;108468;1273;21984;-57
2023/05/27 05:34:23;;;;;;;1999.90;999.90;;;;;;;23.16;83.48;100356.63;108474;1277;21984;-58
2023/05/27 05:36:49;;;;;;;1999.90;999.90;;;;;;;23.15;83.41;100358.45;108638;1280;21983;-58
2023/05/27 05:39:15;;;;;;;1999.90;999.90;;;;;;;23.15;83.57;100358.25;108465;1270;21998;-59
2023/05/27 05:41:41;;;;;;;1999.90;999.90;;;;;;;23.16;83.60;100358.90;108489;1271;21995;-58
2023/05/27 05:44:06;;;;;;;1999.90;999.90;;;;;;;23.19;83.69;100359.65;108633;1280;21987;-58
2023/05/27 05:46:32;;;;;;;1999.90;999.90;;;;;;;23.21;83.85;100360.58;108421;1279;21989;-58
2023/05/27 05:48:57;;;;;;;1999.90;999.90;;;;;;;23.23;83.78;100359.03;108468;1271;21982;-59
2023/05/27 05:51:23;;;;;;;1999.90;999.90;;;;;;;23.25;83.54;100361.59;108507;1279;22020;-60
2023/05/27 05:53:49;;;;;;;1999.90;999.90;;;;;;;23.26;83.76;100361.67;108451;1277;22023;-60
2023/05/27 05:56:14;;;;;;;1999.90;999.90;;;;;;;23.28;83.74;100366.95;108479;1279;21993;-58
2023/05/27 05:58:41;;;;;;;1999.90;999.90;;;;;;;23.28;83.83;100365.70;108504;1280;21973;-58
2023/05/27 06:01:06;;;;;;;1999.90;999.90;;;;;;;23.27;83.68;100368.80;108504;1271;21988;-59
2023/05/27 06:03:32;;;;;;;1999.90;999.90;;;;;;;23.28;83.53;100373.91;108443;1273;21991;-59
2023/05/27 06:05:58;;;;;;;1999.90;999.90;;;;;;;23.29;83.78;100379.76;108428;1279;21988;-58
2023/05/27 06:08:24;;;;;;;1999.90;999.90;;;;;;;23.30;83.91;100379.69;108487;1270;21985;-59
2023/05/27 06:10:50;;;;;;;1999.90;999.90;;;;;;;23.33;84.01;100380.41;108493;1280;23078;-58
2023/05/27 06:13:17;;;;;;;1999.90;999.90;;;;;;;23.38;83.91;100379.04;108442;1275;22028;-59
2023/05/27 06:15:42;;;;;;;1999.90;999.90;;;;;;;23.46;83.79;100382.97;108539;1270;21984;-58
2023/05/27 06:18:08;;;;;;;1999.90;999.90;;;;;;;23.52;83.85;100387.08;108465;1278;22002;-59
2023/05/27 06:20:33;;;;;;;1999.90;999.90;;;;;;;23.54;84.00;100385.44;108519;1279;21980;-58
2023/05/27 06:22:59;;;;;;;1999.90;999.90;;;;;;;23.56;83.71;100382.69;108548;1279;21964;-58
2023/05/27 06:25:28;;;;;;;553.60;518.40;;;;;;;23.53;83.68;100384.27;108606;1271;22069;-59
2023/05/27 06:27:54;;;;;;;593.40;556.90;;;;;;;23.56;83.70;100384.66;108615;1270;21974;-59
2023/05/27 06:30:20;;;;;;;820.10;622.80;;;;;;;23.58;84.03;100386.27;108485;1270;22427;-58
2023/05/27 06:32:46;;;;;;;827.40;629.40;;;;;;;23.62;83.80;100391.23;108461;1275;22025;-59
2023/05/27 06:35:12;;;;;;;1536.70;857.10;;;;;;;23.63;83.64;100392.16;108554;1279;21988;-58
2023/05/27 06:37:38;;;;;;;1999.90;999.90;;;;;;;23.67;84.11;100394.44;108571;1271;22462;-58
2023/05/27 06:40:04;;;;;;;1999.90;999.90;;;;;;;23.71;84.29;100393.65;108565;1276;21990;-58
2023/05/27 06:42:29;;;;;;;1416.80;802.40;;;;;;;23.72;84.04;100395.94;108569;1279;21991;-59
2023/05/27 06:44:55;;;;;;;1752.60;913.60;;;;;;;23.71;84.20;100394.55;108522;1279;21990;-59
2023/05/27 06:47:21;;;;;;;1999.90;999.90;;;;;;;23.76;84.68;100395.65;108522;1274;21990;-59
2023/05/27 06:49:46;;;;;;;885.90;655.10;;;;;;;23.84;84.23;100398.16;108477;1279;21988;-59
2023/05/27 06:52:12;;;;;;;1071.50;713.00;;;;;;;23.86;84.57;100399.42;108495;1279;21979;-60
2023/05/27 06:54:38;;;;;;;601.20;563.60;;;;;;;23.87;85.20;100397.38;108526;1279;21979;-58
2023/05/27 06:57:04;;;;;;;870.90;671.50;;;;;;;23.89;85.84;100396.23;108554;1279;21980;-60
2023/05/27 06:59:29;;;;;;;636.30;596.50;;;;;;;23.88;86.14;100402.18;108435;1270;21996;-58
2023/05/27 07:01:58;;;;;;;631.60;592.60;;;;;;;23.87;85.45;100401.68;108534;1270;21994;-59
2023/05/27 07:04:24;;;;;;;621.70;583.80;;;;;;;23.92;85.83;100402.45;108599;1279;22044;-58
2023/05/27 07:06:50;;;;;;;631.20;592.30;;;;;;;24.02;86.52;100401.08;108667;1270;22003;-59
2023/05/27 07:09:16;;;;;;;633.50;595.30;;;;;;;24.13;86.95;100401.27;108597;1271;21980;-59
2023/05/27 07:11:42;;;;;;;596.10;560.50;;;;;;;24.24;87.44;100402.28;108592;1279;21981;-59
2023/05/27 07:14:10;;;;;;;626.00;587.90;;;;;;;24.38;88.58;100402.95;108465;1275;21985;-59
2023/05/27 07:16:36;;;;;;;645.10;605.80;;;;;;;24.55;88.85;100402.29;108576;1278;21981;-60
2023/05/27 07:19:02;;;;;;;629.00;591.30;;;;;;;24.71;88.60;100400.84;108543;1279;22016;-59
2023/05/27 07:21:28;;;;;;;610.60;574.00;;;;;;;24.82;88.20;100403.08;108486;1279;21971;-59
2023/05/27 07:23:53;;;;;;;605.40;569.60;;;;;;;24.98;88.41;100401.75;108610;1271;22439;-59
2023/05/27 07:26:19;;;;;;;602.90;567.00;;;;;;;25.09;88.12;100402.21;108522;1273;21978;-59
2023/05/27 07:28:45;;;;;;;605.40;569.70;;;;;;;25.18;88.44;100400.72;108491;1270;21997;-60
2023/05/27 07:31:11;;;;;;;563.00;530.90;;;;;;;25.27;88.70;100398.45;108478;1274;21983;-58
2023/05/27 07:33:37;;;;;;;597.20;562.10;;;;;;;25.40;89.68;100399.95;108580;1279;21983;-59
2023/05/27 07:36:02;;;;;;;576.90;543.90;;;;;;;25.55;90.11;100398.20;108574;1274;21986;-59
2023/05/27 07:38:28;;;;;;;552.80;522.40;;;;;;;25.71;90.41;100399.64;108486;1273;21995;-60
2023/05/27 07:40:54;;;;;;;481.10;455.40;;;;;;;25.88;90.19;100401.25;108474;1279;21989;-58
2023/05/27 07:43:21;;;;;;;518.90;490.10;;;;;;;26.08;89.77;100400.13;108461;1275;21986;-59
2023/05/27 07:45:46;;;;;;;520.50;492.00;;;;;;;26.21;89.33;100399.64;108494;1279;21977;-60
2023/05/27 07:48:12;;;;;;;531.10;502.50;;;;;;;26.33;88.83;100403.02;108428;1277;21988;-60
2023/05/27 07:50:38;;;;;;;529.80;501.40;;;;;;;26.46;88.12;100402.61;108516;1277;21997;-60
2023/05/27 07:53:03;;;;;;;467.40;442.90;;;;;;;26.53;88.40;100405.98;108585;1274;21985;-59
2023/05/27 07:55:30;;;;;;;439.00;416.50;;;;;;;26.58;87.23;100408.10;108601;1270;21981;-59
2023/05/27 07:57:56;;;;;;;408.10;387.20;;;;;;;26.57;86.43;100405.27;108454;1270;21977;-59
2023/05/27 08:00:21;;;;;;;406.00;385.40;;;;;;;26.59;86.58;100406.23;108397;1274;21985;-60
2023/05/27 08:02:47;;;;;;;368.10;349.80;;;;;;;26.63;86.26;100405.77;108444;1279;22027;-60
2023/05/27 08:05:13;;;;;;;384.60;365.20;;;;;;;26.69;86.45;100402.50;108469;1274;22042;-59
2023/05/27 08:07:38;;;;;;;371.70;353.30;;;;;;;26.77;86.45;100403.91;108464;1270;21983;-60
2023/05/27 08:10:05;;;;;;;354.00;336.40;;;;;;;26.82;85.93;100404.08;108469;1279;21978;-58
2023/05/27 08:12:31;;;;;;;342.80;325.90;;;;;;;26.85;85.49;100405.27;108523;1270;22022;-60
2023/05/27 08:14:56;;;;;;;314.30;299.10;;;;;;;26.87;84.91;100402.98;108430;1277;21989;-59
2023/05/27 08:17:22;;;;;;;308.30;293.40;;;;;;;26.90;85.28;100404.77;108451;1279;21982;-60
2023/05/27 08:19:48;;;;;;;301.10;286.60;;;;;;;27.00;84.98;100405.89;108489;1274;21983;-60
2023/05/27 08:22:13;;;;;;;289.00;275.00;;;;;;;27.07;84.08;100402.63;108446;1277;21982;-59
2023/05/27 08:24:39;;;;;;;317.60;302.20;;;;;;;27.14;84.77;100397.95;108426;1278;21980;-60
2023/05/27 08:27:08;;;;;;;316.90;301.60;;;;;;;27.28;86.15;100398.17;108442;1273;22021;-61
2023/05/27 08:29:35;;;;;;;307.30;292.50;;;;;;;27.48;86.33;100396.60;108470;1274;21999;-59
2023/05/27 08:32:01;;;;;;;295.00;280.90;;;;;;;27.69;86.30;100393.23;108460;1279;21983;-60
2023/05/27 08:34:27;;;;;;;291.10;277.10;;;;;;;27.90;85.86;100394.16;108440;1271;21997;-60
2023/05/27 08:36:52;;;;;;;279.90;266.60;;;;;;;28.02;84.95;100392.89;108445;1271;22021;-60
2023/05/27 08:39:18;;;;;;;277.00;263.70;;;;;;;28.05;83.73;100393.77;108453;1271;22020;-60
2023/05/27 08:41:44;;;;;;;288.20;274.10;;;;;;;28.01;83.36;100394.27;108449;1279;21982;-60
2023/05/27 08:44:10;;;;;;;270.90;257.50;;;;;;;27.94;82.77;100396.67;108434;1270;21976;-60
2023/05/27 08:46:36;;;;;;;268.70;255.70;;;;;;;27.85;82.44;100397.26;108512;1279;21977;-60
2023/05/27 08:49:01;;;;;;;260.10;247.70;;;;;;;27.70;82.54;100395.27;108534;1274;22005;-61
2023/05/27 08:51:27;;;;;;;257.30;245.20;;;;;;;27.53;82.36;100397.64;108453;1271;22033;-61
2023/05/27 08:53:53;;;;;;;258.30;246.10;;;;;;;27.39;83.00;100398.55;108447;1279;22445;-61
2023/05/27 08:56:19;;;;;;;257.00;244.80;;;;;;;27.35;83.92;100398.58;108469;1279;21981;-59
2023/05/27 08:58:46;;;;;;;259.30;246.80;;;;;;;27.36;84.58;100397.02;108534;1270;22049;-61
2023/05/27 09:01:12;;;;;;;271.00;258.10;;;;;;;27.39;85.39;100396.45;108449;1274;21984;-61
2023/05/27 09:03:38;;;;;;;258.70;246.40;;;;;;;27.40;85.03;100391.42;108490;1277;21977;-60
2023/05/27 09:06:04;;;;;;;250.60;238.90;;;;;;;27.40;84.48;100389.80;108457;1279;22076;-59
2023/05/27 09:08:31;;;;;;;244.10;232.30;;;;;;;27.40;84.77;100388.02;108494;1274;21970;-60
2023/05/27 09:10:57;;;;;;;248.10;236.40;;;;;;;27.40;84.68;100386.05;108512;1277;21994;-60
2023/05/27 09:13:30;;;;;;;270.50;257.80;;;;;;;27.45;85.95;100382.73;108466;1273;21982;-61
2023/05/27 09:16:03;;;;;;;238.60;227.30;;;;;;;27.56;85.94;100381.84;108479;1279;21990;-59
2023/05/27 09:18:33;;;;;;;268.10;255.40;;;;;;;27.64;86.52;100381.23;108492;1279;22000;-61
2023/05/27 09:20:59;;;;;;;272.20;259.30;;;;;;;27.74;86.79;100381.29;108478;1279;22374;-59
2023/05/27 09:23:25;;;;;;;263.10;250.60;;;;;;;27.86;87.03;100377.71;108426;1270;22005;-60
2023/05/27 09:25:51;;;;;;;252.50;240.60;;;;;;;27.96;86.42;100377.08;108430;1270;21979;-60
2023/05/27 09:28:24;;;;;;;253.80;241.80;;;;;;;28.03;85.94;100376.61;108500;1273;22028;-59
2023/05/27 09:31:05;;;;;;;255.00;242.80;;;;;;;28.09;85.49;100373.94;108472;1270;22000;-61
2023/05/27 09:33:32;;;;;;;246.20;234.60;;;;;;;28.15;85.06;100371.64;108459;1279;22021;-59
2023/05/27 09:36:02;;;;;;;232.40;221.00;;;;;;;28.21;84.10;100373.72;108460;1270;22876;-60
2023/05/27 09:38:29;;;;;;;206.30;196.30;;;;;;;28.21;83.52;100374.38;108483;1277;22036;-61
2023/05/27 09:40:57;;;;;;;222.60;211.80;;;;;;;28.22;82.70;100374.67;108491;1275;21988;-60
2023/05/27 09:43:24;;;;;;;224.70;213.80;;;;;;;28.22;82.07;100372.52;108521;1275;21982;-59
2023/05/27 09:45:51;;;;;;;228.10;217.00;;;;;;;28.17;81.51;100372.90;108473;1274;22021;-60
2023/05/27 09:48:18;;;;;;;215.50;205.20;;;;;;;28.14;81.04;100372.85;108564;1277;23623;-60
2023/05/27 09:50:44;;;;;;;203.50;193.40;;;;;;;28.18;81.51;100374.13;108440;1279;21978;-60
2023/05/27 09:53:13;;;;;;;181.10;172.40;;;;;;;28.23;80.01;100368.65;108401;1274;21979;-60
2023/05/27 09:55:41;;;;;;;174.70;166.20;;;;;;;28.20;79.06;100365.66;108488;1277;21985;-59
2023/05/27 09:58:06;;;;;;;190.10;180.70;;;;;;;28.19;79.61;100358.51;108514;1267;21977;-60
2023/05/27 10:00:33;;;;;;;203.20;193.50;;;;;;;28.26;79.46;100353.61;108352;1270;135827;-60
2023/05/27 10:03:00;;;;;;;200.80;191.10;;;;;;;28.38;80.38;100353.60;108440;1274;21985;-60
2023/05/27 10:05:25;;;;;;;189.90;180.70;;;;;;;28.56;80.03;100351.69;108388;1279;21990;-61
2023/05/27 10:07:51;;;;;;;167.90;159.70;;;;;;;28.77;79.68;100347.67;108399;1276;22106;-60
2023/05/27 10:10:18;;;;;;;179.40;170.70;;;;;;;29.11;82.27;100348.05;108429;1277;22073;-61
2023/05/27 10:12:45;;;;;;;191.90;182.80;;;;;;;29.64;83.65;100346.09;108495;1279;21989;-61
2023/05/27 10:15:23;;;;;;;224.70;213.80;;;;;;;30.24;82.25;100338.73;108468;1274;22018;-59
2023/05/27 10:17:53;;;;;;;178.10;169.40;;;;;;;30.80;81.29;100332.19;108519;1279;21990;-61
2023/05/27 10:20:37;;;;;;;;;;;;;;;31.35;81.30;100323.50;108520;1267;22424;-60
2023/05/27 10:23:09;;;;;;;212.00;201.80;;;;;;;31.75;74.00;100310.96;108496;1279;22451;-60
2023/05/27 10:25:37;;;;;;;182.00;173.30;;;;;;;31.96;74.59;100306.45;108443;1279;21991;-61
2023/05/27 10:28:02;;;;;;;186.10;176.90;;;;;;;32.28;73.39;100305.17;108470;1279;21979;-60
2023/05/27 10:30:28;;;;;;;224.60;213.60;;;;;;;32.58;72.44;100300.91;108453;1273;21978;-61
2023/05/27 10:32:54;;;;;;;277.40;263.70;;;;;;;32.84;67.77;100299.94;108552;1274;21993;-60
2023/05/27 10:35:19;;;;;;;295.60;281.10;;;;;;;33.14;69.56;100300.11;108398;1266;24294;-60
2023/05/27 10:37:48;;;;;;;303.30;288.10;;;;;;;33.29;66.74;100303.42;108404;1277;22028;-61
2023/05/27 10:40:24;;;;;;;296.50;282.00;;;;;;;33.43;67.01;100301.17;108496;1276;21981;-60